Tuesday, December 18, 2018, 4:26 PM EST
Back to Local

KPYM, Plymouth Municipal Airport

Location: Carver, MA, United States Lat: 41.9
Local Time: 4:26 PM EST (21:26 GMT) Lon: -70.733
Time Zone: US/Eastern Elev: 147 ft

Show me the last for .
Show Decoded

2018-12-18 15:52 METAR KPYM 182052Z AUTO 30016G22KT 10SM CLR M01/M12 A2991 RMK AO2 PK WND
                 32028/2007 SLP131 T10061117 53032 =
2018-12-18 14:52 METAR KPYM 181952Z AUTO 32015G26KT 10SM CLR 01/M12 A2988 RMK AO2 PK WND
                 33032/1924 SLP118 T00061122 =
2018-12-18 13:52 METAR KPYM 181852Z AUTO 32015G30KT 10SM CLR 01/M12 A2984 RMK AO2 PK WND
                 31034/1809 SLP106 T00061122 =
2018-12-18 12:52 METAR KPYM 181752Z AUTO 31019G31KT 10SM CLR 00/M12 A2982 RMK AO2 PK WND
                 33032/1719 SLP099 60000 T00001122 10000 21044 52006 =
2018-12-18 11:52 METAR KPYM 181652Z AUTO 31017G29KT 10SM CLR M01/M12 A2981 RMK AO2 PK WND
                 30031/1602 SLP097 T10061122 =
2018-12-18 10:52 METAR KPYM 181552Z AUTO 31011G26KT 10SM CLR M01/M12 A2981 RMK AO2 PK WND
                 31035/1510 SLP095 T10111122 =
2018-12-18 09:52 METAR KPYM 181452Z AUTO 31021G30KT 10SM CLR M02/M13 A2980 RMK AO2 PK WND
                 32035/1412 SNE07 SLP093 P0000 60000 T10221128 51029 =
2018-12-18 08:52 METAR KPYM 181352Z AUTO 31018G35KT 9SM -SN CLR M03/M13 A2978 RMK AO2 PK WND
                 33037/1325 UPB44E46SNB46 SLP085 P0000 T10331128 =
2018-12-18 07:52 METAR KPYM 181252Z AUTO 31021G34KT 10SM OVC065 M04/M13 A2974 RMK AO2 PK WND
                 31034/1252 SLP073 T10391128 =
2018-12-18 06:52 METAR KPYM 181152Z AUTO 31020G33KT 10SM BKN065 M04/M13 A2971 RMK AO2 PK WND
                 32036/1107 SLP063 60000 70001 T10441133 10028 21044 51033 =
2018-12-18 05:52 METAR KPYM 181052Z AUTO 31019G37KT 10SM CLR M04/M13 A2969 RMK AO2 PK WND
                 33038/1034 SLP055 T10391133 =
2018-12-18 04:52 METAR KPYM 180952Z AUTO 29023G34KT 10SM SCT050 OVC070 M03/M12 A2965 RMK AO2 PK
                 WND 29043/0930 SLP041 T10331122 =
2018-12-18 03:52 METAR KPYM 180852Z AUTO 31020G32KT 10SM BKN070 OVC100 M01/M09 A2961 RMK AO2 PK
                 WND 32032/0847 SLP030 60000 T10061094 53026 =
2018-12-18 02:52 METAR KPYM 180752Z AUTO 31014G27KT 10SM FEW020 FEW060 BKN120 00/M05 A2958 RMK
                 AO2 PK WND 33033/0714 SNB13E28 SLP019 P0000 T00001050 =
2018-12-18 01:52 METAR KPYM 180652Z AUTO 28010G18KT 10SM FEW035 SCT043 OVC120 02/M03 A2955 RMK
                 AO2 SLP009 T00221028 =
2018-12-18 00:52 METAR KPYM 180552Z AUTO 27010KT 10SM FEW055 SCT065 OVC080 03/M02 A2954 RMK AO2
                 SLP004 T00281022 10028 20022 58010 =
2018-12-17 23:52 METAR KPYM 180452Z AUTO 26009KT 10SM FEW042 SCT050 OVC080 03/M02 A2955 RMK AO2
                 SLP008 T00281022 400560017 =
2018-12-17 22:52 METAR KPYM 180352Z AUTO 26011KT 10SM OVC085 03/M02 A2956 RMK AO2 SLP011
                 T00281022 =
2018-12-17 21:52 METAR KPYM 180252Z AUTO 26009G17KT 10SM OVC075 03/M02 A2957 RMK AO2 SLP014
                 T00281022 51004 =
2018-12-17 20:52 METAR KPYM 180152Z AUTO 27009G17KT 10SM CLR 02/M02 A2957 RMK AO2 SLP013
                 T00221022 =
2018-12-17 19:52 METAR KPYM 180052Z AUTO 28009KT 10SM CLR 03/M02 A2957 RMK AO2 SLP013 T00281017 =
2018-12-17 18:52 METAR KPYM 172352Z AUTO 28009KT 10SM BKN070 03/M01 A2956 RMK AO2 SLP011 60001
                 T00281006 10044 20028 53012 =
2018-12-17 17:52 METAR KPYM 172252Z AUTO 27008KT 10SM FEW070 03/M01 A2954 RMK AO2 SLP004
                 T00331006 =
2018-12-17 16:52 METAR KPYM 172152Z AUTO 27010KT 10SM FEW044 OVC055 04/00 A2953 RMK AO2 SLP001
                 T00390000 =

Support USWX by starting your Amazon purchase here.